Pickton, Texas
Current Conditions -  °F | °C
As of 6:55 PM on Saturday 22 Nov 2014 (Local Time) from KSLR Reporting Station
Drizzle Drizzle  
Wind Chill: 16°   Ceiling: 1700
Heat Index: 16°   Visibility: 10mi
Dew Point: 16°   Wind: 0mph
Humidity: 97%   Direction: NA
Pressure: 29.88"   Gusts: NA
Location:  33.03°N, 95.39°W
Report Text: KSLR 230055Z AUTO 00000KT 10SM DZ SCT013 OVC017 17/16 A2988 RMK AO2 LTG DSNT S AND SW P0001 T01650161
Loading
Personal Weather Stations






























Interactive Weather Map New forecast layout! Learn more

10-Day Weather Forecast

Advertisements
Track Severe Weather on mobile